Time;durP1;ratioP1;P1;durP2;ratioP2;P2;SDS_P1;SDS_P2;PMS_P1;PMS_P2;Temp;Humidity;BMP_temperature;BMP_pressure;BME280_temperature;BME280_humidity;BME280_pressure;Samples;Min_cycle;Max_cycle;Signal;HPM_P1;HPM_P2
2021/12/27 00:00:37;;;;;;;;;;;4.40;99.90;;;;;;5025135;28;19992;-81
2021/12/27 00:03:03;;;;;;;;;;;4.40;99.90;;;;;;5039477;28;19912;-81
2021/12/27 00:05:29;;;;;;;;;;;4.40;99.90;;;;;;5028907;28;19917;-81
2021/12/27 00:07:55;;;;;;;;;;;4.40;99.90;;;;;;5021584;28;20249;-80
2021/12/27 00:10:21;;;;;;;;;;;4.50;99.90;;;;;;5006937;28;19967;-82
2021/12/27 00:12:47;;;;;;;;;;;4.50;99.90;;;;;;5042930;28;19920;-81
2021/12/27 00:15:15;;;;;;;;;;;4.40;99.90;;;;;;5022359;28;19974;-81
2021/12/27 00:17:42;;;;;;;;;;;4.40;99.90;;;;;;5025371;28;19962;-82
2021/12/27 00:20:09;;;;;;;;;;;4.40;99.90;;;;;;5027125;28;19912;-81
2021/12/27 00:22:34;;;;;;;;;;;4.40;99.90;;;;;;5023838;28;19935;-83
2021/12/27 00:25:00;;;;;;;;;;;4.50;99.90;;;;;;5025422;28;19916;-82
2021/12/27 00:27:25;;;;;;;;;;;4.50;99.90;;;;;;5040431;28;20435;-80
2021/12/27 00:29:54;;;;;;;;;;;4.50;99.90;;;;;;5043595;28;19978;-84
2021/12/27 00:32:20;;;;;;;;;;;4.50;99.90;;;;;;5023644;28;19967;-79
2021/12/27 00:34:45;;;;;;;;;;;4.40;99.90;;;;;;5044158;28;19912;-83
2021/12/27 00:37:11;;;;;;;;;;;4.50;99.90;;;;;;5025496;28;19933;-80
2021/12/27 00:39:36;;;;;;;;;;;4.50;99.90;;;;;;5045227;28;19913;-82
2021/12/27 00:42:02;;;;;;;;;;;4.50;99.90;;;;;;5022989;28;20007;-80
2021/12/27 00:44:28;;;;;;;;;;;4.50;99.90;;;;;;5024728;28;19917;-82
2021/12/27 00:46:54;;;;;;;;;;;4.40;99.90;;;;;;5021397;28;19917;-80
2021/12/27 00:49:19;;;;;;;;;;;4.40;99.90;;;;;;5044290;28;19931;-80
2021/12/27 00:51:45;;;;;;;;;;;4.40;99.90;;;;;;5042935;28;20022;-80
2021/12/27 00:54:10;;;;;;;;;;;4.40;99.90;;;;;;5021599;28;19917;-81
2021/12/27 00:56:36;;;;;;;;;;;4.30;99.90;;;;;;5038684;28;19964;-83
2021/12/27 00:59:01;;;;;;;;;;;4.30;99.90;;;;;;5038560;28;19916;-84
2021/12/27 01:01:27;;;;;;;;;;;4.30;99.90;;;;;;5038544;28;19921;-82
2021/12/27 01:03:52;;;;;;;;;;;4.30;99.90;;;;;;5024135;28;19916;-82
2021/12/27 01:06:18;;;;;;;;;;;4.40;99.90;;;;;;5040640;28;20387;-82
2021/12/27 01:08:43;;;;;;;;;;;4.40;99.90;;;;;;5041093;28;19913;-82
2021/12/27 01:18:34;;;;;;;;;;;4.50;99.90;;;;;;5038621;28;19919;-83
2021/12/27 01:20:59;;;;;;;;;;;4.50;99.90;;;;;;5021021;28;20003;-79
2021/12/27 01:23:25;;;;;;;;;;;4.50;99.90;;;;;;5023644;28;20488;-82
2021/12/27 01:25:50;;;;;;;;;;;4.60;99.90;;;;;;5020915;28;19913;-82
2021/12/27 01:28:18;;;;;;;;;;;4.60;99.90;;;;;;5041253;28;20008;-82
2021/12/27 01:30:48;;;;;;;;;;;4.50;99.90;;;;;;5039073;28;19913;-82
2021/12/27 01:33:14;;;;;;;;;;;4.50;99.90;;;;;;5045171;28;19917;-83
2021/12/27 01:35:40;;;;;;;;;;;4.50;99.90;;;;;;5043861;28;19984;-82
2021/12/27 01:38:06;;;;;;;;;;;4.50;99.90;;;;;;5041027;28;20066;-82
2021/12/27 01:40:31;;;;;;;;;;;4.50;99.90;;;;;;5039295;28;19924;-82
2021/12/27 01:43:07;;;;;;;;;;;4.50;99.90;;;;;;5024104;28;20307;-81
2021/12/27 01:45:35;;;;;;;;;;;4.60;99.90;;;;;;5037936;28;20429;-81
2021/12/27 01:48:00;;;;;;;;;;;4.60;99.90;;;;;;5020881;28;19913;-81
2021/12/27 01:50:26;;;;;;;;;;;4.60;99.90;;;;;;5021445;28;19923;-81
2021/12/27 01:52:52;;;;;;;;;;;4.60;99.90;;;;;;5037231;28;19975;-82
2021/12/27 01:55:23;;;;;;;;;;;4.60;99.90;;;;;;5039057;28;20364;-81
2021/12/27 02:00:51;;;;;;;;;;;4.60;99.90;;;;;;5040653;28;19920;-82
2021/12/27 02:03:17;;;;;;;;;;;4.60;99.90;;;;;;5041428;28;19912;-82
2021/12/27 02:05:43;;;;;;;;;;;4.70;99.90;;;;;;5042701;28;19958;-82
2021/12/27 02:08:09;;;;;;;;;;;4.70;99.90;;;;;;5021102;28;19913;-82
2021/12/27 02:11:04;;;;;;;;;;;4.70;99.90;;;;;;5044898;28;19913;-83
2021/12/27 02:13:30;;;;;;;;;;;4.70;99.90;;;;;;5044665;28;20388;-81
2021/12/27 02:15:55;;;;;;;;;;;4.80;99.90;;;;;;5059143;28;19913;-81
2021/12/27 02:18:21;;;;;;;;;;;4.80;99.90;;;;;;5031767;28;19921;-82
2021/12/27 02:20:46;;;;;;;;;;;4.80;99.90;;;;;;5043392;28;19921;-81
2021/12/27 02:23:17;;;;;;;;;;;4.90;99.90;;;;;;5045008;28;19915;-82
2021/12/27 02:25:44;;;;;;;;;;;4.90;99.90;;;;;;5024756;28;20339;-81
2021/12/27 02:28:23;;;;;;;;;;;4.90;99.90;;;;;;5044811;28;19966;-81
2021/12/27 02:30:51;;;;;;;;;;;5.00;99.90;;;;;;5020996;28;20024;-81
2021/12/27 02:33:17;;;;;;;;;;;4.90;99.90;;;;;;5029514;28;19912;-82
2021/12/27 02:35:44;;;;;;;;;;;4.90;99.90;;;;;;5027203;28;20380;-82
2021/12/27 02:38:12;;;;;;;;;;;4.90;99.90;;;;;;5041786;28;20429;-81
2021/12/27 02:40:39;;;;;;;;;;;5.00;99.90;;;;;;5024035;28;20010;-82
2021/12/27 02:43:06;;;;;;;;;;;5.00;99.90;;;;;;5022496;28;19913;-81
2021/12/27 02:45:33;;;;;;;;;;;5.00;99.90;;;;;;5044452;28;20440;-82
2021/12/27 02:47:59;;;;;;;;;;;5.00;99.90;;;;;;5044543;28;19921;-82
2021/12/27 02:50:26;;;;;;;;;;;5.00;99.90;;;;;;5041920;28;20348;-81
2021/12/27 02:52:51;;;;;;;;;;;5.00;99.90;;;;;;5026203;28;19920;-81
2021/12/27 02:55:17;;;;;;;;;;;5.00;99.90;;;;;;5042300;28;19912;-81
2021/12/27 02:57:44;;;;;;;;;;;5.00;99.90;;;;;;5044521;28;19912;-82
2021/12/27 03:00:15;;;;;;;;;;;5.10;99.90;;;;;;5023426;28;19991;-81
2021/12/27 03:02:42;;;;;;;;;;;5.10;99.90;;;;;;5024732;28;19917;-82
2021/12/27 03:05:07;;;;;;;;;;;5.00;99.90;;;;;;5041274;28;20004;-81
2021/12/27 03:07:33;;;;;;;;;;;5.00;99.90;;;;;;5026554;28;20011;-81
2021/12/27 03:09:59;;;;;;;;;;;5.00;99.90;;;;;;5023106;28;20426;-81
2021/12/27 03:12:24;;;;;;;;;;;5.00;99.90;;;;;;5042180;28;20364;-83
2021/12/27 03:14:50;;;;;;;;;;;5.10;99.90;;;;;;5027236;28;19924;-82
2021/12/27 03:17:15;;;;;;;;;;;5.10;99.90;;;;;;5041796;28;19912;-82
2021/12/27 03:19:41;;;;;;;;;;;5.10;99.90;;;;;;5043983;28;20389;-82
2021/12/27 03:22:06;;;;;;;;;;;5.10;99.90;;;;;;5044102;28;20020;-82
2021/12/27 03:24:32;;;;;;;;;;;5.10;99.90;;;;;;5047800;28;19913;-82
2021/12/27 03:26:57;;;;;;;;;;;5.20;99.90;;;;;;5043343;28;19913;-79
2021/12/27 03:29:23;;;;;;;;;;;5.20;99.90;;;;;;5025093;28;19964;-81
2021/12/27 03:31:50;;;;;;;;;;;5.20;99.90;;;;;;5019089;28;20367;-82
2021/12/27 03:34:15;;;;;;;;;;;5.20;99.90;;;;;;5051474;28;19921;-81
2021/12/27 03:36:42;;;;;;;;;;;5.20;99.90;;;;;;5034231;28;20007;-82
2021/12/27 03:39:08;;;;;;;;;;;5.10;99.90;;;;;;5039920;28;19915;-82
2021/12/27 03:41:34;;;;;;;;;;;5.10;99.90;;;;;;5015861;28;20299;-82
2021/12/27 03:44:00;;;;;;;;;;;5.10;99.90;;;;;;5039731;28;20004;-81
2021/12/27 03:46:25;;;;;;;;;;;5.10;99.90;;;;;;5044283;28;19932;-82
2021/12/27 03:48:51;;;;;;;;;;;5.10;99.90;;;;;;5019284;28;20276;-82
2021/12/27 03:51:16;;;;;;;;;;;5.10;99.90;;;;;;5039839;28;19917;-82
2021/12/27 03:53:42;;;;;;;;;;;5.10;99.90;;;;;;5042999;28;19921;-81
2021/12/27 03:56:08;;;;;;;;;;;5.10;99.90;;;;;;5042892;28;19913;-82
2021/12/27 03:58:46;;;;;;;;;;;5.10;99.90;;;;;;5024440;28;19921;-81
2021/12/27 04:01:21;;;;;;;;;;;5.10;99.90;;;;;;5042733;28;19925;-81
2021/12/27 04:03:48;;;;;;;;;;;5.10;99.90;;;;;;5009437;28;19924;-82
2021/12/27 04:06:14;;;;;;;;;;;5.10;99.90;;;;;;5045241;28;19938;-82
2021/12/27 04:08:40;;;;;;;;;;;5.10;99.90;;;;;;5028121;28;19916;-82
2021/12/27 04:11:05;;;;;;;;;;;5.10;99.90;;;;;;5023342;28;19923;-81
2021/12/27 04:13:31;;;;;;;;;;;5.20;99.90;;;;;;5028521;28;19920;-82
2021/12/27 04:15:56;;;;;;;;;;;5.20;99.90;;;;;;5042401;28;19924;-82
2021/12/27 04:18:22;;;;;;;;;;;5.20;99.90;;;;;;5041250;28;20368;-82
2021/12/27 04:20:47;;;;;;;;;;;5.20;99.90;;;;;;5039845;28;19920;-82
2021/12/27 04:23:13;;;;;;;;;;;5.20;99.90;;;;;;5044354;28;19973;-81
2021/12/27 04:25:40;;;;;;;;;;;5.10;99.90;;;;;;5040124;28;19920;-82
2021/12/27 04:28:05;;;;;;;;;;;5.10;99.90;;;;;;5041854;28;19971;-82
2021/12/27 04:30:31;;;;;;;;;;;5.20;99.90;;;;;;5044214;28;19922;-82
2021/12/27 04:32:56;;;;;;;;;;;5.20;99.90;;;;;;5046654;28;20027;-82
2021/12/27 04:35:22;;;;;;;;;;;5.20;99.90;;;;;;5026184;28;19917;-82
2021/12/27 04:37:48;;;;;;;;;;;5.20;99.90;;;;;;5005353;28;19956;-82
2021/12/27 04:40:14;;;;;;;;;;;5.10;99.90;;;;;;5026879;28;20630;-82
2021/12/27 04:42:42;;;;;;;;;;;5.10;99.90;;;;;;5039787;28;19913;-81
2021/12/27 04:45:08;;;;;;;;;;;5.10;99.90;;;;;;5043345;28;19909;-82
2021/12/27 04:47:33;;;;;;;;;;;5.20;99.90;;;;;;5017630;28;19938;-81
2021/12/27 04:49:59;;;;;;;;;;;5.10;99.90;;;;;;5025314;28;19913;-81
2021/12/27 04:52:24;;;;;;;;;;;5.10;99.90;;;;;;5040200;28;20025;-82
2021/12/27 04:54:50;;;;;;;;;;;5.20;99.90;;;;;;5043717;28;20490;-82
2021/12/27 04:57:16;;;;;;;;;;;5.10;99.90;;;;;;5017815;28;19909;-82
2021/12/27 04:59:42;;;;;;;;;;;5.10;99.90;;;;;;5021097;28;20380;-82
2021/12/27 05:02:07;;;;;;;;;;;5.10;99.90;;;;;;5046456;28;19920;-82
2021/12/27 05:04:33;;;;;;;;;;;5.00;99.90;;;;;;5027513;28;19909;-82
2021/12/27 05:06:59;;;;;;;;;;;5.10;99.90;;;;;;5021424;28;19912;-81
2021/12/27 05:09:24;;;;;;;;;;;5.10;99.90;;;;;;5035228;28;19913;-82
2021/12/27 05:11:50;;;;;;;;;;;5.10;99.90;;;;;;5044012;28;19934;-82
2021/12/27 05:14:15;;;;;;;;;;;5.10;99.90;;;;;;5019123;28;19919;-82
2021/12/27 05:16:41;;;;;;;;;;;5.00;99.90;;;;;;5024322;28;19916;-82
2021/12/27 05:19:07;;;;;;;;;;;5.00;99.90;;;;;;5039920;28;20323;-81
2021/12/27 05:21:32;;;;;;;;;;;5.00;99.90;;;;;;5043913;28;19936;-82
2021/12/27 05:23:58;;;;;;;;;;;5.00;99.90;;;;;;5041495;28;19915;-82
2021/12/27 05:26:24;;;;;;;;;;;5.10;99.90;;;;;;5039233;28;20371;-82
2021/12/27 05:28:49;;;;;;;;;;;5.10;99.90;;;;;;5043928;28;20299;-82
2021/12/27 05:31:15;;;;;;;;;;;5.10;99.90;;;;;;5036595;28;19921;-82
2021/12/27 05:33:40;;;;;;;;;;;5.00;99.90;;;;;;5037301;28;19916;-83
2021/12/27 05:36:06;;;;;;;;;;;4.90;99.90;;;;;;5042309;28;19913;-82
2021/12/27 05:38:32;;;;;;;;;;;4.80;99.90;;;;;;5039356;28;20319;-81
2021/12/27 05:40:57;;;;;;;;;;;4.90;99.90;;;;;;5025921;28;20390;-82
2021/12/27 05:43:24;;;;;;;;;;;4.90;99.90;;;;;;5035758;28;19917;-81
2021/12/27 05:45:49;;;;;;;;;;;4.90;99.90;;;;;;5063228;28;19971;-81
2021/12/27 05:48:15;;;;;;;;;;;4.90;99.90;;;;;;5040436;28;19904;-81
2021/12/27 05:50:41;;;;;;;;;;;4.90;99.90;;;;;;5033856;28;20283;-82
2021/12/27 05:53:07;;;;;;;;;;;4.90;99.90;;;;;;5026612;28;20065;-83
2021/12/27 05:55:33;;;;;;;;;;;4.80;99.90;;;;;;5028178;28;19913;-82
2021/12/27 05:57:58;;;;;;;;;;;4.80;99.90;;;;;;5047973;28;19951;-82
2021/12/27 06:00:24;;;;;;;;;;;4.70;99.90;;;;;;5047909;28;19917;-82
2021/12/27 06:02:51;;;;;;;;;;;4.70;99.90;;;;;;5046797;28;20376;-82
2021/12/27 06:05:17;;;;;;;;;;;4.50;99.90;;;;;;5046227;28;19916;-82
2021/12/27 06:07:43;;;;;;;;;;;4.40;99.90;;;;;;5021883;28;19931;-82
2021/12/27 06:10:09;;;;;;;;;;;4.40;99.90;;;;;;5027998;28;19924;-83
2021/12/27 06:12:35;;;;;;;;;;;4.30;99.90;;;;;;5032785;28;19952;-82
2021/12/27 06:15:01;;;;;;;;;;;4.20;99.90;;;;;;5046439;28;20357;-82
2021/12/27 06:17:27;;;;;;;;;;;4.10;99.90;;;;;;5050582;28;20384;-83
2021/12/27 06:19:52;;;;;;;;;;;4.00;99.90;;;;;;5035181;28;19913;-82
2021/12/27 06:22:19;;;;;;;;;;;3.90;99.90;;;;;;5045308;28;19985;-83
2021/12/27 06:24:44;;;;;;;;;;;3.80;99.90;;;;;;5051033;28;20413;-83
2021/12/27 06:27:10;;;;;;;;;;;3.70;99.90;;;;;;5046088;28;19909;-82
2021/12/27 06:29:35;;;;;;;;;;;3.60;99.90;;;;;;5036758;28;19915;-81
2021/12/27 06:32:01;;;;;;;;;;;3.60;99.90;;;;;;5029730;28;19975;-82
2021/12/27 06:34:26;;;;;;;;;;;3.50;99.90;;;;;;5023994;28;20360;-83
2021/12/27 06:36:52;;;;;;;;;;;3.50;99.90;;;;;;5031019;28;20000;-83
2021/12/27 06:39:17;;;;;;;;;;;3.40;99.90;;;;;;5042369;28;20383;-83
2021/12/27 06:41:43;;;;;;;;;;;3.20;99.90;;;;;;5036655;28;20402;-85
2021/12/27 06:44:08;;;;;;;;;;;3.20;99.90;;;;;;5010950;28;19920;-83
2021/12/27 06:46:34;;;;;;;;;;;3.20;99.90;;;;;;5033464;28;19908;-84
2021/12/27 06:48:59;;;;;;;;;;;3.20;99.90;;;;;;5027297;28;19955;-82
2021/12/27 06:51:25;;;;;;;;;;;3.10;99.90;;;;;;5024675;28;20445;-83
2021/12/27 06:53:50;;;;;;;;;;;3.00;99.90;;;;;;5046248;28;20650;-83
2021/12/27 06:56:16;;;;;;;;;;;3.00;99.90;;;;;;5048186;28;20345;-85
2021/12/27 06:58:42;;;;;;;;;;;2.90;99.90;;;;;;5044745;28;19909;-83
2021/12/27 07:01:08;;;;;;;;;;;2.90;99.90;;;;;;5041565;28;20007;-83
2021/12/27 07:03:34;;;;;;;;;;;2.90;99.90;;;;;;5024962;28;19912;-84
2021/12/27 07:05:59;;;;;;;;;;;2.80;99.90;;;;;;5046371;28;20268;-84
2021/12/27 07:08:26;;;;;;;;;;;2.80;99.90;;;;;;5042826;28;19917;-82
2021/12/27 07:10:52;;;;;;;;;;;2.80;99.90;;;;;;5024252;28;20376;-84
2021/12/27 07:13:17;;;;;;;;;;;2.70;99.90;;;;;;5025544;28;19924;-84
2021/12/27 07:15:44;;;;;;;;;;;2.80;99.90;;;;;;5049417;28;19924;-83
2021/12/27 07:18:11;;;;;;;;;;;2.90;99.90;;;;;;5072623;28;19904;-83
2021/12/27 07:20:37;;;;;;;;;;;3.00;99.90;;;;;;5077711;28;19916;-84
2021/12/27 07:23:06;;;;;;;;;;;2.80;99.90;;;;;;5060604;28;19900;-83
2021/12/27 07:25:32;;;;;;;;;;;2.70;99.90;;;;;;5054886;28;19913;-83
2021/12/27 07:28:40;;;;;;;;;;;2.70;99.90;;;;;;5050283;28;19924;-82
2021/12/27 07:30:46;;;;;;;;;;;2.70;99.90;;;;;;5035806;28;19920;-83
2021/12/27 07:33:12;;;;;;;;;;;2.80;99.90;;;;;;5027687;28;19925;-84
2021/12/27 07:35:37;;;;;;;;;;;2.70;99.90;;;;;;5047639;28;19917;-83
2021/12/27 07:38:03;;;;;;;;;;;2.70;99.90;;;;;;5029615;28;19913;-83
2021/12/27 07:40:29;;;;;;;;;;;2.70;99.90;;;;;;5050219;28;19939;-84
2021/12/27 07:42:55;;;;;;;;;;;2.70;99.90;;;;;;5028625;28;19955;-84
2021/12/27 07:45:20;;;;;;;;;;;2.80;99.90;;;;;;5031680;28;19999;-83
2021/12/27 07:47:46;;;;;;;;;;;3.00;99.90;;;;;;5046322;28;19917;-83
2021/12/27 07:50:11;;;;;;;;;;;3.20;99.90;;;;;;5025052;28;20554;-84
2021/12/27 07:52:37;;;;;;;;;;;3.20;99.90;;;;;;5023188;28;20087;-84
2021/12/27 07:55:03;;;;;;;;;;;3.20;99.90;;;;;;5028518;28;19909;-84
2021/12/27 07:57:29;;;;;;;;;;;3.20;99.90;;;;;;5039984;28;19912;-84
2021/12/27 07:59:54;;;;;;;;;;;3.20;99.90;;;;;;5043255;28;19913;-84
2021/12/27 08:02:29;;;;;;;;;;;3.20;99.90;;;;;;5038958;28;19924;-83
2021/12/27 08:04:55;;;;;;;;;;;3.20;99.90;;;;;;5048365;28;19916;-84
2021/12/27 08:07:22;;;;;;;;;;;3.30;99.90;;;;;;5042195;28;19921;-84
2021/12/27 08:09:47;;;;;;;;;;;3.40;99.90;;;;;;5038641;28;19917;-83
2021/12/27 08:12:14;;;;;;;;;;;3.50;99.90;;;;;;5037613;28;19917;-87
2021/12/27 08:14:40;;;;;;;;;;;3.70;99.90;;;;;;5040681;28;19917;-83
2021/12/27 08:17:06;;;;;;;;;;;3.80;99.90;;;;;;5037075;28;19913;-81
2021/12/27 08:19:33;;;;;;;;;;;3.80;99.90;;;;;;5048129;28;19913;-83
2021/12/27 08:21:59;;;;;;;;;;;3.90;99.90;;;;;;5027406;28;19950;-84
2021/12/27 08:24:24;;;;;;;;;;;4.00;99.90;;;;;;5041496;28;20354;-86
2021/12/27 08:26:50;;;;;;;;;;;4.10;99.90;;;;;;5044500;28;19931;-85
2021/12/27 08:29:15;;;;;;;;;;;4.20;99.90;;;;;;5033121;28;19917;-85
2021/12/27 08:31:41;;;;;;;;;;;4.20;99.90;;;;;;5045985;28;20296;-84
2021/12/27 08:34:06;;;;;;;;;;;4.30;99.90;;;;;;5039049;28;20764;-84
2021/12/27 08:36:32;;;;;;;;;;;4.30;99.90;;;;;;5043885;28;20447;-78
2021/12/27 08:38:57;;;;;;;;;;;4.40;99.90;;;;;;5033653;28;19935;-84
2021/12/27 08:41:28;;;;;;;;;;;4.40;99.90;;;;;;5049693;28;20312;-83
2021/12/27 08:44:05;;;;;;;;;;;4.40;99.90;;;;;;5043912;28;19917;-83
2021/12/27 08:46:34;;;;;;;;;;;4.50;99.90;;;;;;5025440;28;19912;-83
2021/12/27 08:48:59;;;;;;;;;;;4.70;99.90;;;;;;5039041;28;19921;-82
2021/12/27 08:51:25;;;;;;;;;;;4.80;99.90;;;;;;5042341;28;19918;-83
2021/12/27 08:53:51;;;;;;;;;;;5.00;99.90;;;;;;5008166;28;19921;-83
2021/12/27 08:56:18;;;;;;;;;;;5.00;99.90;;;;;;5037061;28;19919;-83
2021/12/27 08:58:44;;;;;;;;;;;4.90;99.90;;;;;;5021711;28;19924;-82
2021/12/27 09:01:09;;;;;;;;;;;4.70;99.90;;;;;;5041033;28;20296;-81
2021/12/27 09:03:35;;;;;;;;;;;4.80;99.90;;;;;;5044560;28;19923;-84
2021/12/27 09:06:01;;;;;;;;;;;4.70;99.90;;;;;;5043189;28;20441;-83
2021/12/27 09:08:26;;;;;;;;;;;4.80;99.90;;;;;;5023954;28;19912;-81
2021/12/27 09:10:53;;;;;;;;;;;4.80;99.90;;;;;;5025685;28;19966;-81
2021/12/27 09:13:19;;;;;;;;;;;5.00;99.90;;;;;;5027211;28;19928;-81
2021/12/27 09:15:44;;;;;;;;;;;5.10;99.90;;;;;;5043450;28;19917;-81
2021/12/27 09:18:10;;;;;;;;;;;5.30;99.90;;;;;;5043363;28;19917;-80
2021/12/27 09:20:36;;;;;;;;;;;5.50;99.90;;;;;;5066986;28;19917;-79
2021/12/27 09:23:01;;;;;;;;;;;5.60;99.90;;;;;;5026778;28;19913;-80
2021/12/27 09:25:27;;;;;;;;;;;5.90;99.90;;;;;;5039194;28;19924;-81
2021/12/27 09:27:52;;;;;;;;;;;6.00;99.90;;;;;;5041117;28;20434;-79
2021/12/27 09:30:18;;;;;;;;;;;6.20;99.90;;;;;;5039849;28;20007;-80
2021/12/27 09:32:45;;;;;;;;;;;6.30;99.90;;;;;;5020523;28;19909;-78
2021/12/27 09:35:10;;;;;;;;;;;6.30;99.90;;;;;;5048501;28;20003;-79
2021/12/27 09:37:36;;;;;;;;;;;6.50;99.90;;;;;;5031235;28;20622;-79
2021/12/27 09:40:02;;;;;;;;;;;6.70;99.90;;;;;;5043155;28;19909;-79
2021/12/27 09:42:28;;;;;;;;;;;6.50;99.90;;;;;;5040970;28;20364;-80
2021/12/27 09:44:55;;;;;;;;;;;6.30;99.90;;;;;;5043138;28;19920;-82
2021/12/27 09:47:21;;;;;;;;;;;6.30;99.90;;;;;;5045049;28;19912;-82
2021/12/27 09:49:48;;;;;;;;;;;6.40;99.90;;;;;;5045017;28;20315;-82
2021/12/27 09:52:14;;;;;;;;;;;6.40;99.90;;;;;;5042846;28;20011;-82
2021/12/27 09:54:40;;;;;;;;;;;6.30;99.90;;;;;;5041812;28;20330;-80
2021/12/27 09:57:06;;;;;;;;;;;6.30;99.90;;;;;;5021605;28;19913;-83
2021/12/27 09:59:31;;;;;;;;;;;6.30;99.90;;;;;;5022726;28;20395;-84
2021/12/27 10:01:57;;;;;;;;;;;6.40;99.90;;;;;;5026299;28;19925;-82
2021/12/27 10:04:22;;;;;;;;;;;6.60;99.90;;;;;;5025521;28;19921;-87
2021/12/27 10:06:48;;;;;;;;;;;6.50;99.90;;;;;;5043968;28;19918;-89
2021/12/27 10:09:14;;;;;;;;;;;6.40;99.90;;;;;;5025243;28;19972;-79
2021/12/27 10:11:42;;;;;;;;;;;6.40;99.90;;;;;;5025297;28;19913;-85
2021/12/27 10:14:18;;;;;;;;;;;6.30;99.90;;;;;;5029188;28;20286;-86
2021/12/27 10:16:48;;;;;;;;;;;6.40;99.90;;;;;;5037537;28;19944;-85
2021/12/27 10:19:16;;;;;;;;;;;6.60;99.90;;;;;;5037620;28;20434;-86
2021/12/27 10:21:42;;;;;;;;;;;6.60;99.90;;;;;;5039728;28;19920;-87
2021/12/27 10:24:15;;;;;;;;;;;6.70;99.90;;;;;;5020050;28;19917;-85
2021/12/27 10:26:42;;;;;;;;;;;6.80;99.90;;;;;;5024967;28;19916;-86
2021/12/27 10:29:09;;;;;;;;;;;6.70;99.90;;;;;;5050916;28;19973;-86
2021/12/27 10:31:51;;;;;;;;;;;6.90;99.90;;;;;;5022709;28;19920;-86
2021/12/27 10:34:16;;;;;;;;;;;7.10;99.90;;;;;;5041991;28;19912;-76
2021/12/27 10:36:58;;;;;;;;;;;7.20;99.90;;;;;;5030230;28;19924;-86
2021/12/27 10:39:27;;;;;;;;;;;7.20;99.90;;;;;;5043289;28;19916;-86
2021/12/27 10:41:53;;;;;;;;;;;7.30;99.90;;;;;;5023869;28;20372;-86
2021/12/27 10:44:18;;;;;;;;;;;7.20;99.90;;;;;;5044627;28;19942;-85
2021/12/27 10:46:44;;;;;;;;;;;7.10;99.90;;;;;;5047794;28;19917;-86
2021/12/27 10:49:09;;;;;;;;;;;7.00;99.90;;;;;;5016212;28;20377;-84
2021/12/27 10:51:35;;;;;;;;;;;7.00;99.90;;;;;;5025687;28;19924;-86
2021/12/27 10:54:01;;;;;;;;;;;7.20;99.90;;;;;;5044776;28;19928;-85
2021/12/27 10:56:28;;;;;;;;;;;7.50;99.90;;;;;;5029804;28;19913;-85
2021/12/27 10:58:55;;;;;;;;;;;7.80;99.90;;;;;;5043215;28;20426;-84
2021/12/27 11:01:22;;;;;;;;;;;7.80;99.90;;;;;;5039506;28;20004;-85
2021/12/27 11:03:49;;;;;;;;;;;8.00;99.90;;;;;;5042345;28;19913;-85
2021/12/27 11:06:23;;;;;;;;;;;8.00;99.90;;;;;;5023739;28;19945;-85
2021/12/27 11:08:48;;;;;;;;;;;8.10;99.90;;;;;;5032201;28;19916;-84
2021/12/27 11:11:15;;;;;;;;;;;8.30;99.90;;;;;;5046888;28;20333;-83
2021/12/27 11:13:41;;;;;;;;;;;8.30;99.90;;;;;;5007630;28;20019;-83
2021/12/27 11:16:07;;;;;;;;;;;8.10;99.90;;;;;;5043266;28;19916;-84
2021/12/27 11:18:34;;;;;;;;;;;8.20;99.90;;;;;;5042632;28;19963;-82
2021/12/27 11:21:01;;;;;;;;;;;7.70;99.90;;;;;;5028259;28;20380;-84
2021/12/27 11:23:27;;;;;;;;;;;7.70;99.90;;;;;;5021010;28;20239;-84
2021/12/27 11:26:07;;;;;;;;;;;7.90;99.90;;;;;;5029609;28;20363;-84
2021/12/27 11:28:34;;;;;;;;;;;8.00;99.90;;;;;;5050502;28;19916;-84
2021/12/27 11:31:03;;;;;;;;;;;7.80;99.90;;;;;;5044875;28;19917;-84
2021/12/27 11:33:30;;;;;;;;;;;8.10;99.90;;;;;;5029115;28;20011;-84
2021/12/27 11:35:59;;;;;;;;;;;8.00;99.90;;;;;;5045474;28;19913;-82
2021/12/27 11:38:28;;;;;;;;;;;8.10;99.90;;;;;;5040815;28;19913;-83
2021/12/27 11:40:54;;;;;;;;;;;7.90;99.90;;;;;;5049502;28;19924;-78
2021/12/27 11:43:20;;;;;;;;;;;7.80;99.90;;;;;;5047938;28;19916;-78
2021/12/27 11:45:47;;;;;;;;;;;7.60;99.90;;;;;;5045863;28;20276;-78
2021/12/27 11:48:18;;;;;;;;;;;7.70;99.90;;;;;;5030301;28;19951;-79
2021/12/27 11:50:56;;;;;;;;;;;7.60;99.90;;;;;;5034819;28;19923;-79
2021/12/27 11:53:32;;;;;;;;;;;7.30;99.90;;;;;;5041677;28;19921;-80
2021/12/27 11:55:58;;;;;;;;;;;7.30;99.90;;;;;;5028605;28;19921;-77
2021/12/27 11:58:37;;;;;;;;;;;7.50;99.90;;;;;;5042083;28;20002;-77
2021/12/27 12:01:23;;;;;;;;;;;7.50;99.90;;;;;;5025137;28;19916;-78
2021/12/27 12:03:49;;;;;;;;;;;7.30;99.90;;;;;;5025644;28;19912;-78
2021/12/27 12:06:35;;;;;;;;;;;7.40;99.90;;;;;;5041958;28;20322;-77
2021/12/27 12:09:01;;;;;;;;;;;7.60;99.90;;;;;;5041943;28;19913;-78
2021/12/27 12:11:32;;;;;;;;;;;7.80;99.90;;;;;;5045022;28;19915;-76
2021/12/27 12:13:59;;;;;;;;;;;7.80;99.90;;;;;;5040997;28;19927;-76
2021/12/27 12:16:26;;;;;;;;;;;7.60;99.90;;;;;;5043646;28;19935;-77
2021/12/27 12:18:52;;;;;;;;;;;7.80;99.90;;;;;;5026816;28;19917;-76
2021/12/27 12:21:29;;;;;;;;;;;7.60;99.90;;;;;;5044140;28;20051;-77
2021/12/27 12:23:56;;;;;;;;;;;7.40;99.90;;;;;;5043693;28;19913;-77
2021/12/27 12:26:22;;;;;;;;;;;7.30;99.90;;;;;;5041425;28;19952;-78
2021/12/27 12:28:47;;;;;;;;;;;7.40;99.90;;;;;;5044369;28;19976;-77
2021/12/27 12:31:14;;;;;;;;;;;7.50;99.90;;;;;;5037240;28;19917;-78
2021/12/27 12:33:40;;;;;;;;;;;7.30;99.90;;;;;;5044710;28;19956;-78
2021/12/27 12:36:06;;;;;;;;;;;7.40;99.90;;;;;;5028250;28;20376;-79
2021/12/27 12:38:35;;;;;;;;;;;7.40;99.90;;;;;;5026943;28;19917;-78
2021/12/27 12:41:05;;;;;;;;;;;7.30;99.90;;;;;;5025242;28;19916;-78
2021/12/27 12:43:34;;;;;;;;;;;7.20;99.90;;;;;;5042816;28;19920;-78
2021/12/27 12:46:30;;;;;;;;;;;7.30;99.90;;;;;;5022913;28;19999;-78
2021/12/27 12:48:57;;;;;;;;;;;7.50;99.90;;;;;;5033862;28;19919;-78
2021/12/27 12:51:29;;;;;;;;;;;7.70;99.90;;;;;;5047885;28;19919;-78
2021/12/27 12:53:55;;;;;;;;;;;7.80;99.90;;;;;;5023714;28;19925;-79
2021/12/27 12:56:27;;;;;;;;;;;7.80;99.90;;;;;;5021764;28;19917;-80
2021/12/27 12:58:52;;;;;;;;;;;7.80;99.90;;;;;;5044016;28;19935;-80
2021/12/27 13:01:18;;;;;;;;;;;8.00;99.90;;;;;;5025736;28;19925;-80
2021/12/27 13:03:44;;;;;;;;;;;7.80;99.90;;;;;;5041840;28;19913;-80
2021/12/27 13:06:10;;;;;;;;;;;7.90;99.90;;;;;;5068310;28;19916;-80
2021/12/27 13:08:35;;;;;;;;;;;8.10;99.90;;;;;;5053550;28;20390;-79
2021/12/27 13:11:04;;;;;;;;;;;8.20;99.90;;;;;;5025293;28;19923;-79
2021/12/27 13:13:30;;;;;;;;;;;8.00;99.90;;;;;;5046626;28;19917;-77
2021/12/27 13:15:58;;;;;;;;;;;7.80;99.90;;;;;;5042077;28;19924;-77
2021/12/27 13:18:25;;;;;;;;;;;7.70;99.90;;;;;;5043932;28;19916;-77
2021/12/27 13:20:52;;;;;;;;;;;7.90;99.90;;;;;;5021715;28;19924;-78
2021/12/27 13:23:20;;;;;;;;;;;7.80;99.90;;;;;;5027865;28;19999;-82
2021/12/27 13:25:48;;;;;;;;;;;7.80;99.90;;;;;;5037106;28;19912;-84
2021/12/27 13:28:14;;;;;;;;;;;7.90;99.90;;;;;;5025007;28;19913;-84
2021/12/27 13:30:47;;;;;;;;;;;7.60;99.90;;;;;;5035673;28;19917;-85
2021/12/27 13:33:14;;;;;;;;;;;7.30;99.90;;;;;;5037557;28;19916;-80
2021/12/27 13:35:40;;;;;;;;;;;7.20;99.90;;;;;;5040315;28;19935;-80
2021/12/27 13:38:15;;;;;;;;;;;7.10;99.90;;;;;;5039356;28;19913;-80
2021/12/27 13:40:47;;;;;;;;;;;7.10;99.90;;;;;;5036232;28;20433;-80
2021/12/27 13:43:13;;;;;;;;;;;7.30;99.90;;;;;;5022237;28;19951;-80
2021/12/27 13:45:41;;;;;;;;;;;7.40;99.90;;;;;;5040682;28;19944;-77
2021/12/27 13:48:07;;;;;;;;;;;7.60;99.90;;;;;;5012663;28;20060;-78
2021/12/27 13:50:35;;;;;;;;;;;7.60;99.90;;;;;;5040227;28;20003;-76
2021/12/27 13:53:00;;;;;;;;;;;7.60;99.90;;;;;;5040401;28;19974;-76
2021/12/27 13:55:27;;;;;;;;;;;7.60;99.90;;;;;;5039072;28;19913;-76
2021/12/27 13:57:53;;;;;;;;;;;7.50;99.90;;;;;;5044050;28;19924;-75
2021/12/27 14:00:26;;;;;;;;;;;7.50;99.90;;;;;;5024202;28;19917;-76
2021/12/27 14:02:52;;;;;;;;;;;7.20;99.90;;;;;;5018217;28;19923;-76
2021/12/27 14:05:23;;;;;;;;;;;7.20;99.90;;;;;;5045791;28;20402;-78
2021/12/27 14:07:49;;;;;;;;;;;7.10;99.90;;;;;;5039673;28;20031;-77
2021/12/27 14:10:20;;;;;;;;;;;7.10;99.90;;;;;;5028297;28;20021;-78
2021/12/27 14:12:55;;;;;;;;;;;7.30;99.90;;;;;;5023090;28;19913;-75
2021/12/27 14:15:25;;;;;;;;;;;7.20;99.90;;;;;;5043841;28;19960;-76
2021/12/27 14:17:52;;;;;;;;;;;7.20;99.90;;;;;;5043834;28;19912;-77
2021/12/27 14:20:18;;;;;;;;;;;7.10;99.90;;;;;;5041723;28;19917;-78
2021/12/27 14:22:45;;;;;;;;;;;7.00;99.90;;;;;;5040009;28;20016;-76
2021/12/27 14:25:14;;;;;;;;;;;7.00;99.90;;;;;;5045661;28;19913;-77
2021/12/27 14:27:44;;;;;;;;;;;6.80;99.90;;;;;;5041931;28;19951;-75
2021/12/27 14:30:09;;;;;;;;;;;6.80;99.90;;;;;;5025915;28;19917;-75
2021/12/27 14:32:35;;;;;;;;;;;6.80;99.90;;;;;;5027241;28;19916;-75
2021/12/27 14:35:01;;;;;;;;;;;6.60;99.90;;;;;;5044924;28;20239;-75
2021/12/27 14:37:27;;;;;;;;;;;6.70;99.90;;;;;;5022574;28;20379;-75
2021/12/27 14:39:52;;;;;;;;;;;6.60;99.90;;;;;;5020178;28;19929;-76